Mount Holly, Vermont
Current Conditions -  °F | °C
As of 9:35 AM on Thursday 23 Oct 2014 (Local Time) from KRUT Reporting Station
Overcast Overcast  
Wind Chill: 36°   Ceiling: 1800
Heat Index: 43°   Visibility: 10mi
Dew Point: 39°   Wind: 13mph
Humidity: 87%   Direction: 330°NNW
Pressure: 29.85"   Gusts: 18mph
Location:  43.45°N, 72.83°W
Report Text: KRUT 231335Z 33011G16KT 10SM SCT009 OVC018 06/04 A2985 RMK AO1
Loading
Personal Weather Stations






























Interactive Weather Map New forecast layout! Learn more

10-Day Weather Forecast

Advertisements
Track Severe Weather on mobile